Wetterdaten: Woche 25.09.17 - 01.10.17 (KW39)
Datum Zeit Temp. Aussen Temp. o. S. +5cm Feuchte Auss BlattFeu 1 Luftdruck Regen Sonnenschein Regendauer Solar Windben Empfang
25.09.2017 00:00 12,3 C 10,8 C 9,3 C 91 % 2 lf 1021,5 hPa 0,0 l/m 0,00 h 0,00 h 4 W/m 0,3 km/h (0 Bft) 92,65 %
25.09.2017 01:00 11,5 C 9,8 C 8,6 C 91 % 7 lf 1021,0 hPa 0,0 l/m 0,00 h 0,00 h 0 W/m 0,0 km/h (0 Bft) 98,17 %
25.09.2017 02:00 10,9 C 9,3 C 8,3 C 92 % 15 lf 1020,8 hPa 0,0 l/m 0,00 h 0,00 h 0 W/m 2,4 km/h (1 Bft) 95,10 %
25.09.2017 03:00 10,4 C 8,6 C 7,8 C 93 % 15 lf 1020,7 hPa 0,0 l/m 0,00 h 0,00 h 0 W/m 0,0 km/h (0 Bft) 93,43 %
25.09.2017 04:00 10,0 C 9,2 C 7,8 C 94 % 15 lf 1020,5 hPa 0,0 l/m 0,00 h 0,00 h 0 W/m 3,5 km/h (1 Bft) 92,81 %
25.09.2017 05:00 9,9 C 8,7 C 7,4 C 94 % 15 lf 1020,3 hPa 0,0 l/m 0,00 h 0,00 h 0 W/m 2,8 km/h (1 Bft) 94,62 %
25.09.2017 06:00 9,7 C 8,9 C 7,5 C 95 % 15 lf 1020,0 hPa 0,0 l/m 0,00 h 0,00 h 0 W/m 5,1 km/h (1 Bft) 92,60 %
25.09.2017 07:00 9,8 C 8,7 C 7,5 C 96 % 15 lf 1020,0 hPa 0,0 l/m 0,00 h 0,00 h 14 W/m 3,3 km/h (1 Bft) 95,80 %
25.09.2017 08:00 9,8 C 10,7 C 8,6 C 96 % 15 lf 1020,3 hPa 0,0 l/m 0,50 h 0,00 h 80 W/m 3,4 km/h (1 Bft) 91,90 %
25.09.2017 09:00 11,1 C 12,9 C 10,7 C 97 % 15 lf 1020,5 hPa 0,0 l/m 0,00 h 0,00 h 121 W/m 4,3 km/h (1 Bft) 93,52 %
25.09.2017 10:00 13,3 C 20,9 C 15,3 C 98 % 7 lf 1020,3 hPa 0,0 l/m 1,00 h 0,00 h 397 W/m 10,1 km/h (2 Bft) 95,59 %
25.09.2017 11:00 16,0 C 22,8 C 19,8 C 90 % 0 lf 1020,3 hPa 0,2 l/m 0,97 h 0,00 h 484 W/m 14,4 km/h (3 Bft) 92,17 %
25.09.2017 12:00 18,4 C 26,1 C 21,3 C 79 % 0 lf 1019,9 hPa 0,0 l/m 1,00 h 0,00 h 619 W/m 11,8 km/h (2 Bft) 93,29 %
25.09.2017 13:00 19,6 C 26,4 C 18,7 C 73 % 0 lf 1019,6 hPa 0,0 l/m 1,00 h 0,00 h 653 W/m 13,8 km/h (3 Bft) 95,70 %
25.09.2017 14:00 19,5 C 21,7 C 19,5 C 72 % 0 lf 1019,4 hPa 0,0 l/m 1,00 h 0,00 h 626 W/m 13,6 km/h (3 Bft) 92,84 %
25.09.2017 15:00 18,9 C 20,4 C 18,6 C 74 % 0 lf 1019,2 hPa 0,0 l/m 0,20 h 0,00 h 218 W/m 12,7 km/h (3 Bft) 93,23 %
25.09.2017 16:00 19,7 C 25,4 C 18,2 C 70 % 0 lf 1019,0 hPa 0,0 l/m 1,00 h 0,00 h 411 W/m 13,8 km/h (3 Bft) 94,98 %
25.09.2017 17:00 19,6 C 19,9 C 17,5 C 71 % 0 lf 1019,1 hPa 0,0 l/m 0,23 h 0,00 h 136 W/m 11,3 km/h (2 Bft) 92,12 %
25.09.2017 18:00 18,7 C 18,4 C 16,4 C 73 % 0 lf 1019,1 hPa 0,0 l/m 0,83 h 0,00 h 80 W/m 9,6 km/h (2 Bft) 94,11 %
25.09.2017 19:00 17,6 C 15,3 C 13,2 C 77 % 0 lf 1019,4 hPa 0,0 l/m 0,23 h 0,00 h 27 W/m 5,9 km/h (2 Bft) 92,60 %
25.09.2017 20:00 15,8 C 13,5 C 11,6 C 82 % 0 lf 1019,7 hPa 0,0 l/m 0,00 h 0,00 h 3 W/m 4,9 km/h (1 Bft) 94,66 %
25.09.2017 21:00 14,3 C 12,1 C 10,6 C 85 % 1 lf 1019,8 hPa 0,0 l/m 0,00 h 0,00 h 4 W/m 2,9 km/h (1 Bft) 92,39 %
25.09.2017 22:00 13,2 C 11,3 C 9,8 C 88 % 2 lf 1019,8 hPa 0,0 l/m 0,00 h 0,00 h 5 W/m 2,9 km/h (1 Bft) 94,80 %
25.09.2017 23:00 12,3 C 10,6 C 9,4 C 90 % 3 lf 1019,8 hPa 0,0 l/m 0,00 h 0,00 h 5 W/m 0,3 km/h (0 Bft) 96,94 %
26.09.2017 00:00 11,7 C 10,5 C 9,7 C 91 % 4 lf 1019,9 hPa 0,0 l/m 0,00 h 0,00 h 5 W/m 0,0 km/h (0 Bft) 96,66 %
26.09.2017 01:00 11,6 C 10,2 C 9,2 C 93 % 6 lf 1019,9 hPa 0,0 l/m 0,00 h 0,00 h 5 W/m 0,0 km/h (0 Bft) 94,37 %
26.09.2017 02:00 11,1 C 9,7 C 8,9 C 94 % 14 lf 1019,8 hPa 0,0 l/m 0,00 h 0,00 h 5 W/m 0,0 km/h (0 Bft) 97,37 %
26.09.2017 03:00 10,6 C 9,0 C 8,2 C 94 % 15 lf 1019,7 hPa 0,0 l/m 0,00 h 0,00 h 0 W/m 0,0 km/h (0 Bft) 97,65 %
26.09.2017 04:00 10,2 C 9,4 C 8,9 C 94 % 15 lf 1019,6 hPa 0,0 l/m 0,00 h 0,00 h 5 W/m 0,0 km/h (0 Bft) 95,23 %
26.09.2017 05:00 10,4 C 10,0 C 9,3 C 95 % 15 lf 1019,8 hPa 0,0 l/m 0,00 h 0,00 h 5 W/m 0,0 km/h (0 Bft) 95,51 %
26.09.2017 06:00 10,6 C 10,0 C 9,4 C 96 % 15 lf 1019,9 hPa 0,0 l/m 0,00 h 0,00 h 0 W/m 0,0 km/h (0 Bft) 97,86 %
26.09.2017 07:00 10,9 C 10,8 C 10,0 C 97 % 15 lf 1020,0 hPa 0,0 l/m 0,00 h 0,00 h 10 W/m 0,0 km/h (0 Bft) 96,90 %
26.09.2017 08:00 11,6 C 11,7 C 10,8 C 97 % 9 lf 1020,4 hPa 0,0 l/m 0,00 h 0,00 h 42 W/m 0,0 km/h (0 Bft) 95,45 %
26.09.2017 09:00 12,3 C 13,3 C 12,3 C 98 % 0 lf 1020,8 hPa 0,0 l/m 0,00 h 0,00 h 83 W/m 0,0 km/h (0 Bft) 97,05 %
26.09.2017 10:00 13,3 C 15,4 C 14,6 C 98 % 0 lf 1020,9 hPa 0,0 l/m 0,00 h 0,00 h 146 W/m 4,2 km/h (1 Bft) 95,80 %
26.09.2017 11:00 14,4 C 17,2 C 16,3 C 97 % 0 lf 1021,1 hPa 0,0 l/m 0,00 h 0,00 h 208 W/m 7,1 km/h (2 Bft) 97,84 %
26.09.2017 12:00 16,1 C 19,5 C 18,1 C 89 % 0 lf 1021,3 hPa 0,0 l/m 0,67 h 0,00 h 391 W/m 5,7 km/h (1 Bft) 94,68 %
26.09.2017 13:00 17,6 C 21,3 C 19,2 C 82 % 0 lf 1021,3 hPa 0,0 l/m 1,00 h 0,00 h 374 W/m 8,5 km/h (2 Bft) 98,00 %
26.09.2017 14:00 18,6 C 24,0 C 19,7 C 80 % 0 lf 1021,0 hPa 0,0 l/m 1,00 h 0,00 h 672 W/m 10,0 km/h (2 Bft) 96,01 %
26.09.2017 15:00 19,3 C 23,5 C 18,9 C 75 % 0 lf 1020,7 hPa 0,0 l/m 1,00 h 0,00 h 528 W/m 9,6 km/h (2 Bft) 95,44 %
26.09.2017 16:00 19,2 C 22,2 C 18,0 C 77 % 0 lf 1020,6 hPa 0,0 l/m 1,00 h 0,00 h 436 W/m 10,5 km/h (2 Bft) 98,43 %
26.09.2017 17:00 19,4 C 20,8 C 18,0 C 76 % 0 lf 1020,6 hPa 0,0 l/m 1,00 h 0,00 h 297 W/m 13,1 km/h (3 Bft) 95,73 %
26.09.2017 18:00 18,8 C 18,6 C 16,9 C 78 % 0 lf 1020,7 hPa 0,0 l/m 1,00 h 0,17 h 105 W/m 9,0 km/h (2 Bft) 96,11 %
26.09.2017 19:00 17,7 C 15,9 C 14,5 C 80 % 0 lf 1021,3 hPa 0,0 l/m 0,20 h 0,00 h 15 W/m 5,0 km/h (1 Bft) 97,51 %
26.09.2017 20:00 16,0 C 14,8 C 13,3 C 83 % 0 lf 1021,8 hPa 0,0 l/m 0,00 h 0,00 h 0 W/m 4,8 km/h (1 Bft) 96,12 %
26.09.2017 21:00 15,0 C 13,7 C 12,4 C 84 % 0 lf 1022,0 hPa 0,0 l/m 0,00 h 0,00 h 0 W/m 5,2 km/h (1 Bft) 96,78 %
26.09.2017 22:00 14,1 C 12,6 C 11,2 C 86 % 0 lf 1022,0 hPa 0,0 l/m 0,00 h 0,00 h 0 W/m 2,2 km/h (1 Bft) 96,58 %
26.09.2017 23:00 13,1 C 11,4 C 10,2 C 89 % 1 lf 1022,0 hPa 0,0 l/m 0,00 h 0,00 h 0 W/m 0,0 km/h (0 Bft) 94,43 %
27.09.2017 00:00 12,4 C 11,3 C 10,6 C 91 % 1 lf 1022,0 hPa 0,0 l/m 0,00 h 0,00 h 0 W/m 1,4 km/h (1 Bft) 98,84 %
27.09.2017 01:00 12,0 C 10,9 C 9,8 C 92 % 2 lf 1021,8 hPa 0,0 l/m 0,00 h 0,00 h 5 W/m 1,7 km/h (1 Bft) 97,98 %
27.09.2017 02:00 11,4 C 9,8 C 8,7 C 93 % 9 lf 1021,8 hPa 0,0 l/m 0,00 h 0,00 h 3 W/m 0,9 km/h (0 Bft) 93,18 %
27.09.2017 03:00 10,6 C 8,8 C 8,0 C 93 % 15 lf 1021,7 hPa 0,0 l/m 0,00 h 0,00 h 0 W/m 0,0 km/h (0 Bft) 97,94 %
27.09.2017 04:00 9,9 C 8,4 C 7,5 C 93 % 15 lf 1021,6 hPa 0,0 l/m 0,00 h 0,00 h 0 W/m 0,0 km/h (0 Bft) 96,60 %
27.09.2017 05:00 9,4 C 8,3 C 7,3 C 94 % 15 lf 1021,6 hPa 0,0 l/m 0,00 h 0,00 h 5 W/m 0,8 km/h (0 Bft) 96,94 %
27.09.2017 06:00 9,3 C 8,3 C 7,7 C 95 % 15 lf 1021,7 hPa 0,0 l/m 0,00 h 0,00 h 0 W/m 0,4 km/h (0 Bft) 94,74 %
27.09.2017 07:00 9,3 C 8,8 C 7,7 C 95 % 15 lf 1021,8 hPa 0,0 l/m 0,00 h 0,00 h 12 W/m 4,1 km/h (1 Bft) 96,44 %
27.09.2017 08:00 9,9 C 10,8 C 8,6 C 96 % 15 lf 1022,0 hPa 0,0 l/m 0,60 h 0,00 h 80 W/m 6,0 km/h (2 Bft) 96,06 %
27.09.2017 09:00 12,0 C 17,1 C 11,0 C 98 % 11 lf 1022,3 hPa 0,0 l/m 1,00 h 0,00 h 231 W/m 10,4 km/h (2 Bft) 98,14 %
27.09.2017 10:00 14,5 C 20,9 C 17,1 C 96 % 0 lf 1022,4 hPa 0,0 l/m 1,00 h 0,00 h 391 W/m 14,0 km/h (3 Bft) 94,37 %
27.09.2017 11:00 17,1 C 23,6 C 21,4 C 85 % 0 lf 1022,3 hPa 0,0 l/m 1,00 h 0,00 h 548 W/m 12,4 km/h (3 Bft) 97,50 %
27.09.2017 12:00 19,3 C 26,2 C 21,9 C 78 % 0 lf 1022,1 hPa 0,0 l/m 1,00 h 0,00 h 613 W/m 14,9 km/h (3 Bft) 97,82 %
27.09.2017 13:00 20,8 C 27,2 C 19,4 C 72 % 0 lf 1021,7 hPa 0,0 l/m 1,00 h 0,00 h 605 W/m 14,3 km/h (3 Bft) 93,96 %
27.09.2017 14:00 21,8 C 28,1 C 19,8 C 67 % 0 lf 1021,4 hPa 0,0 l/m 1,00 h 0,00 h 608 W/m 11,2 km/h (2 Bft) 98,15 %
27.09.2017 15:00 22,1 C 27,5 C 20,0 C 63 % 0 lf 1021,1 hPa 0,0 l/m 1,00 h 0,00 h 559 W/m 11,8 km/h (2 Bft) 96,64 %
27.09.2017 16:00 22,2 C 26,0 C 19,5 C 61 % 0 lf 1020,8 hPa 0,0 l/m 1,00 h 0,00 h 342 W/m 10,3 km/h (2 Bft) 94,95 %
27.09.2017 17:00 22,0 C 21,6 C 18,5 C 59 % 0 lf 1020,6 hPa 0,0 l/m 1,00 h 0,00 h 190 W/m 9,8 km/h (2 Bft) 97,09 %
27.09.2017 18:00 21,1 C 19,5 C 16,4 C 63 % 0 lf 1020,7 hPa 0,0 l/m 0,33 h 0,00 h 56 W/m 5,1 km/h (1 Bft) 95,72 %
27.09.2017 19:00 19,1 C 16,9 C 14,5 C 72 % 0 lf 1020,9 hPa 0,0 l/m 0,00 h 0,00 h 9 W/m 0,2 km/h (0 Bft) 97,82 %
27.09.2017 20:00 17,2 C 14,6 C 12,6 C 79 % 0 lf 1021,0 hPa 0,0 l/m 0,00 h 0,00 h 5 W/m 0,0 km/h (0 Bft) 95,74 %
27.09.2017 21:00 15,5 C 14,2 C 11,7 C 84 % 0 lf 1021,3 hPa 0,0 l/m 0,00 h 0,00 h 5 W/m 4,9 km/h (1 Bft) 96,79 %
27.09.2017 22:00 14,8 C 14,4 C 12,0 C 88 % 0 lf 1021,3 hPa 0,0 l/m 0,00 h 0,00 h 5 W/m 5,2 km/h (1 Bft) 95,23 %
27.09.2017 23:00 14,9 C 14,7 C 13,0 C 89 % 0 lf 1021,1 hPa 0,0 l/m 0,00 h 0,00 h 5 W/m 12,1 km/h (2 Bft) 96,87 %
28.09.2017 00:00 14,7 C 14,0 C 12,5 C 89 % 0 lf 1021,1 hPa 0,0 l/m 0,00 h 0,00 h 5 W/m 7,5 km/h (2 Bft) 96,72 %
28.09.2017 01:00 14,3 C 13,9 C 12,3 C 92 % 0 lf 1021,1 hPa 0,0 l/m 0,00 h 0,00 h 4 W/m 10,4 km/h (2 Bft) 96,58 %
28.09.2017 02:00 14,2 C 13,6 C 12,2 C 93 % 0 lf 1021,0 hPa 0,0 l/m 0,00 h 0,00 h 4 W/m 10,4 km/h (2 Bft) 96,15 %
28.09.2017 03:00 13,8 C 13,3 C 11,9 C 93 % 0 lf 1020,7 hPa 0,0 l/m 0,00 h 0,00 h 4 W/m 10,4 km/h (2 Bft) 96,51 %
28.09.2017 04:00 13,7 C 13,4 C 12,2 C 94 % 0 lf 1020,6 hPa 0,0 l/m 0,00 h 0,00 h 5 W/m 12,2 km/h (2 Bft) 96,86 %
28.09.2017 05:00 13,8 C 13,7 C 12,3 C 95 % 0 lf 1020,6 hPa 0,0 l/m 0,00 h 0,00 h 5 W/m 9,9 km/h (2 Bft) 96,48 %
28.09.2017 06:00 13,8 C 13,4 C 12,3 C 94 % 0 lf 1020,5 hPa 0,0 l/m 0,00 h 0,00 h 5 W/m 10,2 km/h (2 Bft) 96,46 %
28.09.2017 07:00 13,7 C 13,4 C 12,3 C 94 % 0 lf 1020,5 hPa 0,0 l/m 0,00 h 0,00 h 6 W/m 11,6 km/h (2 Bft) 96,29 %
28.09.2017 08:00 14,0 C 13,6 C 12,5 C 94 % 4 lf 1021,0 hPa 0,4 l/m 0,00 h 0,47 h 22 W/m 10,2 km/h (2 Bft) 97,97 %
28.09.2017 09:00 14,2 C 13,5 C 12,8 C 95 % 15 lf 1021,2 hPa 0,4 l/m 0,00 h 1,00 h 54 W/m 9,0 km/h (2 Bft) 95,09 %
28.09.2017 10:00 14,7 C 14,3 C 13,8 C 96 % 15 lf 1021,5 hPa 1,0 l/m 0,00 h 0,53 h 99 W/m 5,5 km/h (1 Bft) 97,11 %
28.09.2017 11:00 15,9 C 16,7 C 15,9 C 97 % 10 lf 1021,2 hPa 0,0 l/m 0,10 h 0,00 h 215 W/m 9,4 km/h (2 Bft) 96,50 %
28.09.2017 12:00 16,7 C 16,7 C 15,9 C 96 % 0 lf 1021,4 hPa 0,0 l/m 0,00 h 0,07 h 143 W/m 8,2 km/h (2 Bft) 97,09 %
28.09.2017 13:00 18,0 C 21,4 C 17,6 C 91 % 0 lf 1021,3 hPa 0,0 l/m 0,47 h 0,00 h 411 W/m 13,2 km/h (3 Bft) 95,44 %
28.09.2017 14:00 20,2 C 24,3 C 18,5 C 81 % 0 lf 1021,0 hPa 0,0 l/m 1,00 h 0,00 h 569 W/m 14,9 km/h (3 Bft) 97,51 %
28.09.2017 15:00 21,5 C 25,5 C 21,1 C 78 % 0 lf 1020,8 hPa 0,0 l/m 1,00 h 0,00 h 472 W/m 13,9 km/h (3 Bft) 98,01 %
28.09.2017 16:00 22,2 C 24,3 C 20,2 C 75 % 0 lf 1020,7 hPa 0,0 l/m 0,87 h 0,00 h 312 W/m 16,3 km/h (3 Bft) 94,15 %
28.09.2017 17:00 21,4 C 21,0 C 19,5 C 77 % 0 lf 1020,6 hPa 0,0 l/m 0,00 h 0,00 h 92 W/m 10,2 km/h (2 Bft) 97,92 %
28.09.2017 18:00 20,7 C 19,9 C 18,2 C 80 % 1 lf 1020,7 hPa 0,0 l/m 0,00 h 0,10 h 36 W/m 6,4 km/h (2 Bft) 97,86 %
28.09.2017 19:00 19,9 C 18,6 C 16,7 C 83 % 0 lf 1021,1 hPa 0,0 l/m 0,00 h 0,07 h 8 W/m 4,5 km/h (1 Bft) 93,47 %
28.09.2017 20:00 18,9 C 18,1 C 16,6 C 85 % 0 lf 1021,4 hPa 0,0 l/m 0,00 h 0,00 h 0 W/m 7,7 km/h (2 Bft) 97,15 %
28.09.2017 21:00 18,4 C 17,2 C 15,4 C 86 % 0 lf 1021,7 hPa 0,0 l/m 0,00 h 0,00 h 5 W/m 1,8 km/h (1 Bft) 98,65 %
28.09.2017 22:00 17,7 C 16,7 C 15,2 C 90 % 11 lf 1021,8 hPa 0,0 l/m 0,00 h 0,10 h 4 W/m 8,1 km/h (2 Bft) 94,02 %
28.09.2017 23:00 17,5 C 16,5 C 15,0 C 92 % 14 lf 1021,7 hPa 0,0 l/m 0,00 h 0,17 h 0 W/m 3,5 km/h (1 Bft) 96,58 %
29.09.2017 00:00 17,2 C 16,7 C 15,0 C 94 % 3 lf 1021,7 hPa 0,0 l/m 0,00 h 0,00 h 0 W/m 7,0 km/h (2 Bft) 98,44 %
29.09.2017 01:00 17,0 C 16,5 C 15,0 C 95 % 6 lf 1021,4 hPa 0,4 l/m 0,00 h 0,37 h 0 W/m 9,6 km/h (2 Bft) 94,95 %
29.09.2017 02:00 16,9 C 15,8 C 15,0 C 95 % 15 lf 1021,0 hPa 0,0 l/m 0,00 h 0,13 h 0 W/m 3,8 km/h (1 Bft) 97,58 %
29.09.2017 03:00 16,7 C 15,6 C 15,0 C 96 % 15 lf 1020,9 hPa 0,0 l/m 0,00 h 0,27 h 0 W/m 5,6 km/h (1 Bft) 96,65 %
29.09.2017 04:00 16,4 C 15,6 C 14,9 C 97 % 15 lf 1020,6 hPa 0,0 l/m 0,00 h 0,00 h 0 W/m 4,5 km/h (1 Bft) 95,89 %
29.09.2017 05:00 16,3 C 15,6 C 14,4 C 97 % 15 lf 1020,5 hPa 0,0 l/m 0,00 h 0,00 h 0 W/m 5,6 km/h (1 Bft) 98,76 %
29.09.2017 06:00 16,1 C 15,6 C 14,4 C 98 % 15 lf 1020,5 hPa 0,0 l/m 0,00 h 0,00 h 0 W/m 6,0 km/h (2 Bft) 95,63 %
29.09.2017 07:00 16,0 C 15,6 C 14,4 C 98 % 15 lf 1020,5 hPa 0,0 l/m 0,27 h 0,00 h 262 W/m 5,4 km/h (1 Bft) 94,90 %
29.09.2017 08:00 16,0 C 15,6 C 14,0 C 98 % 15 lf 1020,5 hPa 0,0 l/m 1,00 h 0,00 h 150 W/m 7,4 km/h (2 Bft) 98,57 %
29.09.2017 09:00 16,7 C 20,5 C 15,5 C 99 % 10 lf 1020,5 hPa 0,0 l/m 1,00 h 0,00 h 308 W/m 8,1 km/h (2 Bft) 95,80 %
29.09.2017 10:00 18,3 C 24,3 C 18,7 C 96 % 0 lf 1020,2 hPa 0,0 l/m 1,00 h 0,00 h 442 W/m 12,5 km/h (3 Bft) 95,34 %
29.09.2017 11:00 20,4 C 24,7 C 22,4 C 84 % 0 lf 1019,7 hPa 0,0 l/m 1,00 h 0,00 h 543 W/m 18,3 km/h (3 Bft) 98,60 %
29.09.2017 12:00 21,3 C 26,1 C 23,2 C 79 % 0 lf 1019,1 hPa 0,0 l/m 1,00 h 0,00 h 606 W/m 17,7 km/h (3 Bft) 95,88 %
29.09.2017 13:00 22,3 C 25,4 C 22,1 C 76 % 0 lf 1018,5 hPa 0,0 l/m 1,00 h 0,00 h 404 W/m 15,5 km/h (3 Bft) 96,37 %
29.09.2017 14:00 22,7 C 25,5 C 23,0 C 76 % 0 lf 1018,0 hPa 0,0 l/m 1,00 h 0,00 h 376 W/m 14,2 km/h (3 Bft) 96,94 %
29.09.2017 15:00 23,3 C 26,2 C 22,7 C 74 % 0 lf 1017,6 hPa 0,0 l/m 1,00 h 0,00 h 355 W/m 15,3 km/h (3 Bft) 97,51 %
29.09.2017 16:00 23,6 C 25,1 C 22,5 C 74 % 0 lf 1017,1 hPa 0,0 l/m 0,80 h 0,00 h 312 W/m 17,6 km/h (3 Bft) 95,01 %
29.09.2017 17:00 23,5 C 23,7 C 22,2 C 75 % 0 lf 1016,5 hPa 0,0 l/m 0,90 h 0,00 h 196 W/m 15,3 km/h (3 Bft) 96,14 %
29.09.2017 18:00 23,1 C 22,4 C 20,8 C 77 % 0 lf 1016,3 hPa 0,0 l/m 0,47 h 0,00 h 64 W/m 12,9 km/h (3 Bft) 97,44 %
29.09.2017 19:00 21,7 C 19,5 C 18,2 C 84 % 9 lf 1016,2 hPa 3,6 l/m 0,07 h 0,40 h 17 W/m 9,2 km/h (2 Bft) 96,66 %
29.09.2017 20:00 20,3 C 18,2 C 17,2 C 90 % 15 lf 1016,2 hPa 0,0 l/m 0,00 h 0,00 h 5 W/m 4,5 km/h (1 Bft) 95,09 %
29.09.2017 21:00 19,3 C 17,8 C 16,7 C 93 % 15 lf 1016,2 hPa 0,0 l/m 0,00 h 0,00 h 5 W/m 7,6 km/h (2 Bft) 98,51 %
29.09.2017 22:00 18,8 C 18,3 C 16,8 C 94 % 14 lf 1016,3 hPa 0,0 l/m 0,00 h 0,00 h 0 W/m 10,8 km/h (2 Bft) 95,08 %
29.09.2017 23:00 18,9 C 18,1 C 16,4 C 93 % 2 lf 1016,1 hPa 0,0 l/m 0,00 h 0,00 h 0 W/m 2,0 km/h (1 Bft) 96,19 %
30.09.2017 00:00 18,4 C 17,2 C 16,1 C 93 % 2 lf 1016,0 hPa 0,0 l/m 0,00 h 0,00 h 4 W/m 0,0 km/h (0 Bft) 97,75 %
30.09.2017 01:00 17,9 C 16,9 C 15,7 C 93 % 2 lf 1015,8 hPa 0,0 l/m 0,00 h 0,00 h 0 W/m 0,0 km/h (0 Bft) 96,51 %
30.09.2017 02:00 17,5 C 16,5 C 15,5 C 94 % 7 lf 1016,2 hPa 5,6 l/m 0,00 h 0,43 h 0 W/m 9,8 km/h (2 Bft) 94,45 %
30.09.2017 03:00 16,6 C 15,6 C 14,5 C 95 % 15 lf 1016,5 hPa 4,8 l/m 0,00 h 1,00 h 0 W/m 3,4 km/h (1 Bft) 98,72 %
30.09.2017 04:00 16,2 C 15,6 C 14,4 C 96 % 15 lf 1015,9 hPa 1,2 l/m 0,00 h 1,00 h 5 W/m 6,4 km/h (2 Bft) 95,75 %
30.09.2017 05:00 16,0 C 15,2 C 14,3 C 97 % 15 lf 1014,9 hPa 0,0 l/m 0,00 h 0,10 h 5 W/m 4,5 km/h (1 Bft) 97,57 %
30.09.2017 06:00 15,7 C 15,0 C 13,9 C 98 % 15 lf 1015,0 hPa 0,0 l/m 0,00 h 0,00 h 0 W/m 0,2 km/h (0 Bft) 96,28 %
30.09.2017 07:00 15,5 C 15,0 C 13,9 C 98 % 15 lf 1014,9 hPa 0,0 l/m 0,00 h 0,00 h 16 W/m 6,6 km/h (2 Bft) 96,58 %
30.09.2017 08:00 15,4 C 15,0 C 14,1 C 98 % 15 lf 1014,9 hPa 0,2 l/m 0,00 h 0,63 h 24 W/m 8,4 km/h (2 Bft) 96,59 %
30.09.2017 09:00 15,7 C 15,4 C 14,7 C 99 % 15 lf 1014,8 hPa 1,2 l/m 0,00 h 1,00 h 52 W/m 8,5 km/h (2 Bft) 96,40 %
30.09.2017 10:00 16,2 C 16,0 C 15,4 C 99 % 15 lf 1014,5 hPa 0,8 l/m 0,00 h 1,00 h 76 W/m 6,8 km/h (2 Bft) 95,82 %
30.09.2017 11:00 15,4 C 14,7 C 14,1 C 99 % 15 lf 1014,6 hPa 5,0 l/m 0,00 h 1,00 h 44 W/m 16,6 km/h (3 Bft) 97,59 %
30.09.2017 12:00 14,5 C 14,2 C 13,7 C 99 % 15 lf 1014,9 hPa 1,4 l/m 0,00 h 0,97 h 81 W/m 17,1 km/h (3 Bft) 96,17 %
30.09.2017 13:00 14,7 C 14,4 C 13,9 C 99 % 15 lf 1015,0 hPa 0,8 l/m 0,00 h 1,00 h 74 W/m 14,8 km/h (3 Bft) 95,21 %
30.09.2017 14:00 14,1 C 13,5 C 13,0 C 98 % 15 lf 1015,2 hPa 1,0 l/m 0,00 h 1,00 h 65 W/m 18,2 km/h (3 Bft) 97,32 %
30.09.2017 15:00 13,2 C 12,8 C 12,2 C 98 % 15 lf 1015,8 hPa 1,0 l/m 0,00 h 1,00 h 67 W/m 17,0 km/h (3 Bft) 96,69 %
30.09.2017 16:00 13,1 C 12,8 C 12,2 C 98 % 15 lf 1016,3 hPa 0,2 l/m 0,00 h 0,67 h 62 W/m 8,7 km/h (2 Bft) 95,57 %
30.09.2017 17:00 13,1 C 12,6 C 12,2 C 98 % 15 lf 1016,6 hPa 0,0 l/m 0,00 h 0,03 h 63 W/m 5,0 km/h (1 Bft) 96,49 %
30.09.2017 18:00 13,0 C 12,6 C 12,5 C 97 % 15 lf 1016,9 hPa 0,0 l/m 0,43 h 0,00 h 51 W/m 4,9 km/h (1 Bft) 96,65 %
30.09.2017 19:00 13,1 C 12,4 C 11,9 C 97 % 15 lf 1017,3 hPa 0,0 l/m 0,00 h 0,00 h 16 W/m 6,4 km/h (2 Bft) 96,59 %
30.09.2017 20:00 12,6 C 11,3 C 10,7 C 97 % 15 lf 1017,6 hPa 0,0 l/m 0,00 h 0,00 h 0 W/m 5,4 km/h (1 Bft) 96,30 %
30.09.2017 21:00 11,7 C 10,2 C 9,6 C 96 % 15 lf 1018,1 hPa 0,0 l/m 0,00 h 0,00 h 4 W/m 2,6 km/h (1 Bft) 94,80 %
30.09.2017 22:00 10,9 C 9,9 C 9,3 C 96 % 15 lf 1018,2 hPa 0,0 l/m 0,00 h 0,00 h 2 W/m 8,3 km/h (2 Bft) 97,51 %
30.09.2017 23:00 10,5 C 9,4 C 8,7 C 97 % 15 lf 1018,3 hPa 0,0 l/m 0,00 h 0,00 h 3 W/m 7,4 km/h (2 Bft) 97,45 %
01.10.2017 00:00 10,0 C 9,1 C 7,9 C 97 % 15 lf 1018,4 hPa 0,0 l/m 0,00 h 0,00 h 3 W/m 5,3 km/h (1 Bft) 89,78 %
01.10.2017 01:00 9,4 C 8,4 C 7,3 C 97 % 15 lf 1018,6 hPa 0,0 l/m 0,00 h 0,03 h 0 W/m 5,1 km/h (1 Bft) 96,65 %
01.10.2017 02:00 8,9 C 8,2 C 7,2 C 97 % 15 lf 1018,7 hPa 0,0 l/m 0,00 h 0,00 h 0 W/m 5,7 km/h (1 Bft) 98,51 %
01.10.2017 03:00 8,7 C 7,9 C 7,0 C 97 % 15 lf 1019,0 hPa 0,0 l/m 0,00 h 0,20 h 0 W/m 5,9 km/h (2 Bft) 94,59 %
01.10.2017 04:00 8,3 C 7,6 C 6,7 C 98 % 15 lf 1019,0 hPa 0,2 l/m 0,00 h 0,13 h 0 W/m 8,3 km/h (2 Bft) 96,76 %
01.10.2017 05:00 8,0 C 7,3 C 6,7 C 98 % 15 lf 1019,0 hPa 0,0 l/m 0,00 h 0,07 h 0 W/m 9,4 km/h (2 Bft) 96,54 %
01.10.2017 06:00 8,0 C 7,8 C 7,1 C 98 % 15 lf 1019,4 hPa 0,0 l/m 0,00 h 0,00 h 0 W/m 11,4 km/h (2 Bft) 95,91 %
01.10.2017 07:00 8,1 C 7,8 C 7,1 C 98 % 15 lf 1019,2 hPa 0,0 l/m 0,00 h 0,00 h 6 W/m 10,7 km/h (2 Bft) 97,49 %
01.10.2017 08:00 8,6 C 8,5 C 7,9 C 99 % 15 lf 1019,5 hPa 0,0 l/m 0,13 h 0,00 h 46 W/m 12,6 km/h (3 Bft) 93,84 %
01.10.2017 09:00 9,5 C 11,5 C 9,2 C 99 % 14 lf 1019,5 hPa 0,0 l/m 0,60 h 0,00 h 266 W/m 16,4 km/h (3 Bft) 96,59 %
01.10.2017 10:00 11,6 C 17,5 C 13,6 C 99 % 1 lf 1019,5 hPa 0,0 l/m 1,00 h 0,00 h 456 W/m 20,1 km/h (4 Bft) 99,08 %
01.10.2017 11:00 14,1 C 19,6 C 17,7 C 90 % 0 lf 1019,3 hPa 0,0 l/m 0,73 h 0,00 h 395 W/m 19,9 km/h (4 Bft) 93,77 %
01.10.2017 12:00 16,2 C 21,9 C 18,6 C 84 % 0 lf 1019,3 hPa 0,0 l/m 0,73 h 0,00 h 415 W/m 19,1 km/h (3 Bft) 97,68 %
01.10.2017 13:00 17,9 C 22,5 C 17,8 C 79 % 0 lf 1018,9 hPa 0,0 l/m 0,73 h 0,00 h 450 W/m 20,3 km/h (4 Bft) 97,39 %
01.10.2017 14:00 18,7 C 22,6 C 18,0 C 66 % 0 lf 1018,6 hPa 0,0 l/m 1,00 h 0,00 h 451 W/m 24,3 km/h (4 Bft) 95,79 %
01.10.2017 15:00 18,8 C 21,6 C 18,1 C 65 % 0 lf 1018,1 hPa 0,0 l/m 1,00 h 0,00 h 367 W/m 26,0 km/h (4 Bft) 97,16 %
01.10.2017 16:00 18,0 C 18,5 C 17,1 C 68 % 0 lf 1017,7 hPa 0,0 l/m 0,27 h 0,00 h 182 W/m 22,5 km/h (4 Bft) 95,65 %
01.10.2017 17:00 17,3 C 17,3 C 16,2 C 70 % 0 lf 1017,4 hPa 0,0 l/m 0,43 h 0,00 h 115 W/m 24,7 km/h (4 Bft) 97,43 %
01.10.2017 18:00 16,5 C 16,0 C 14,9 C 73 % 0 lf 1017,2 hPa 0,0 l/m 0,00 h 0,00 h 29 W/m 19,5 km/h (3 Bft) 96,62 %
01.10.2017 19:00 15,8 C 15,5 C 14,0 C 77 % 0 lf 1017,0 hPa 0,0 l/m 0,00 h 0,00 h 29 W/m 18,2 km/h (3 Bft) 97,44 %
01.10.2017 20:00 15,4 C 15,0 C 13,9 C 78 % 0 lf 1016,9 hPa 0,0 l/m 0,00 h 0,00 h 0 W/m 20,5 km/h (4 Bft) 96,08 %
01.10.2017 21:00 15,1 C 14,7 C 13,5 C 79 % 0 lf 1016,7 hPa 0,0 l/m 0,00 h 0,07 h 5 W/m 20,7 km/h (4 Bft) 96,17 %
01.10.2017 22:00 14,8 C 14,4 C 13,3 C 80 % 0 lf 1016,4 hPa 0,0 l/m 0,00 h 0,07 h 5 W/m 19,2 km/h (3 Bft) 96,54 %
01.10.2017 23:00 14,8 C 14,4 C 13,3 C 81 % 0 lf 1016,0 hPa 0,0 l/m 0,00 h 0,00 h 0 W/m 18,9 km/h (3 Bft) 97,77 %
Min-Datum _ 01.10.17 01.10.17 01.10.17 27.09.17 25.09.17 30.09.17 - - - - 25.09.17 01.10.17
_ Min-Zeit 05:32 04:34 03:38 17:00 10:32 10:38 - - - - 00:10 00:02
Minimum _ 7,9 C 7,2 C 6,7 C 58 % 0 lf 1014,4 hPa - - - - 0,0 km/h (0 Bft) 5,88 %
Max-Datum _ 29.09.17 25.09.17 29.09.17 29.09.17 25.09.17 27.09.17 30.09.17 25.09.17 30.09.17 25.09.17 01.10.17 25.09.17
_ Max-Zeit 16:04 13:36 12:32 09:04 02:20 09:50 02:44 12:10 04:05 13:06 13:56 01:14
Maximum _ 23,7 C 31,1 C 24,4 C 99 % 15 lf 1022,6 hPa 5,6 l/m 0,07 h 0,08 h 858 W/m 39,7 km/h
S (6 Bft)
100,00 %
Durchschnitt _ 15,4 C 15,9 C 14,0 C 88 % 6 lf 1019,5 hPa #29,4 l/m #45:46 h #15:14 h 172 W/m 8,5 km/h (2 Bft) 96,12 %
© 2017 W. Hausmann